createdAt,value
2023-03-16T00:02:07.501Z,57.94
2023-03-16T00:04:37.713Z,57.67
2023-03-16T00:07:10.301Z,60.67
2023-03-16T00:09:41.199Z,59.61
2023-03-16T00:12:19.146Z,59.63
2023-03-16T00:14:49.044Z,59.26
2023-03-16T00:17:21.423Z,60.12
2023-03-16T00:19:55.211Z,59.99
2023-03-16T00:22:26.808Z,59.45
2023-03-16T00:24:54.018Z,59.69
2023-03-16T00:27:22.915Z,60.85
2023-03-16T00:29:55.814Z,61.71
2023-03-16T00:32:43.010Z,62.24
2023-03-16T00:35:09.937Z,63.46
2023-03-16T00:37:37.712Z,62.31
2023-03-16T00:40:06.338Z,62.23
2023-03-16T00:42:34.276Z,62.54
2023-03-16T00:45:01.720Z,63.12
2023-03-16T00:47:32.771Z,64.92
2023-03-16T00:50:01.077Z,66.31
2023-03-16T00:52:28.837Z,66.94
2023-03-16T00:54:56.296Z,66.13
2023-03-16T00:57:25.234Z,66.92
2023-03-16T00:59:54.112Z,69.28
2023-03-16T01:02:23.687Z,71.12
2023-03-16T01:04:52.941Z,71.55
2023-03-16T01:07:19.889Z,72.66
2023-03-16T01:09:46.631Z,74.22
2023-03-16T01:12:18.070Z,75.62
2023-03-16T01:14:47.787Z,77.47
2023-03-16T01:17:16.480Z,78.42
2023-03-16T01:19:43.941Z,80.40
2023-03-16T01:22:11.765Z,80.90
2023-03-16T01:24:39.744Z,84.12
2023-03-16T01:27:07.878Z,86.71
2023-03-16T01:29:35.177Z,89.23
2023-03-16T01:32:04.041Z,90.21
2023-03-16T01:34:32.023Z,91.90
2023-03-16T01:36:58.992Z,93.85
2023-03-16T01:39:25.843Z,95.11
2023-03-16T01:41:52.483Z,95.94
2023-03-16T01:44:28.287Z,96.48
2023-03-16T01:46:55.001Z,97.30
2023-03-16T01:49:30.104Z,98.29
2023-03-16T01:52:10.252Z,98.68
2023-03-16T01:54:42.746Z,99.31
2023-03-16T01:57:19.395Z,98.29
2023-03-16T01:59:55.773Z,98.52
2023-03-16T02:02:27.289Z,97.69
2023-03-16T02:05:09.149Z,97.06
2023-03-16T02:07:43.250Z,97.68
2023-03-16T02:10:12.077Z,99.05
2023-03-16T02:12:41.459Z,100.00
2023-03-16T02:15:12.049Z,100.00
2023-03-16T02:17:38.548Z,100.00
2023-03-16T02:20:24.370Z,100.00
2023-03-16T02:22:55.741Z,100.00
2023-03-16T02:25:36.979Z,100.00
2023-03-16T02:28:15.620Z,100.00
2023-03-16T02:30:42.478Z,100.00
2023-03-16T02:33:09.460Z,100.00
2023-03-16T02:35:36.079Z,100.00
2023-03-16T02:38:02.754Z,100.00
2023-03-16T02:40:34.523Z,100.00
2023-03-16T02:43:05.304Z,100.00
2023-03-16T02:45:44.654Z,100.00
2023-03-16T02:48:19.057Z,100.00
2023-03-16T02:50:48.682Z,100.00
2023-03-16T02:53:16.388Z,100.00
2023-03-16T02:55:43.667Z,100.00
2023-03-16T02:58:10.416Z,100.00
2023-03-16T03:00:38.289Z,100.00
2023-03-16T03:03:07.714Z,100.00
2023-03-16T03:05:34.310Z,100.00
2023-03-16T03:08:01.252Z,100.00
2023-03-16T03:10:28.309Z,100.00
2023-03-16T03:12:55.183Z,100.00
2023-03-16T03:15:21.913Z,99.86
2023-03-16T03:17:48.511Z,98.50
2023-03-16T03:20:18.393Z,97.03
2023-03-16T03:22:48.793Z,96.16
2023-03-16T03:25:18.423Z,95.80
2023-03-16T03:27:46.362Z,94.87
2023-03-16T03:30:17.517Z,94.20
2023-03-16T03:32:44.325Z,93.40
2023-03-16T03:35:13.346Z,93.23
2023-03-16T03:37:42.258Z,94.35
2023-03-16T03:40:12.511Z,94.03
2023-03-16T03:42:42.108Z,93.85
2023-03-16T03:45:12.896Z,93.26
2023-03-16T03:47:40.605Z,91.36
2023-03-16T03:50:08.409Z,92.31
2023-03-16T03:52:35.052Z,93.52
2023-03-16T03:55:01.691Z,94.14
2023-03-16T03:57:28.343Z,94.43
2023-03-16T03:59:54.954Z,94.87
2023-03-16T04:02:21.712Z,95.04
2023-03-16T04:04:48.618Z,94.93
2023-03-16T04:07:15.236Z,94.87
2023-03-16T04:09:41.993Z,95.44
2023-03-16T04:12:08.852Z,94.61
2023-03-16T04:14:35.664Z,96.17
2023-03-16T04:17:02.300Z,97.74
2023-03-16T04:19:28.916Z,98.13
2023-03-16T04:21:55.662Z,98.32
2023-03-16T04:24:22.461Z,100.00
2023-03-16T04:26:49.295Z,100.00
2023-03-16T04:29:19.230Z,100.00
2023-03-16T04:31:46.527Z,100.00
2023-03-16T04:34:13.836Z,100.00
2023-03-16T04:36:41.836Z,100.00
2023-03-16T04:39:09.819Z,100.00
2023-03-16T04:41:36.620Z,100.00
2023-03-16T04:44:04.850Z,100.00
2023-03-16T04:46:32.187Z,100.00
2023-03-16T04:48:59.098Z,100.00
2023-03-16T04:51:26.497Z,100.00
2023-03-16T04:53:54.013Z,100.00
2023-03-16T04:56:23.905Z,100.00
2023-03-16T04:58:51.093Z,100.00
2023-03-16T05:01:18.455Z,100.00
2023-03-16T05:03:45.813Z,100.00
2023-03-16T05:06:12.912Z,100.00
2023-03-16T05:08:39.572Z,100.00
2023-03-16T05:11:06.310Z,100.00
2023-03-16T05:13:33.190Z,100.00
2023-03-16T05:16:00.362Z,100.00
2023-03-16T05:18:27.180Z,100.00
2023-03-16T05:20:56.146Z,100.00
2023-03-16T05:23:26.470Z,100.00
2023-03-16T05:25:53.160Z,100.00
2023-03-16T05:28:19.712Z,100.00
2023-03-16T05:30:46.406Z,100.00
2023-03-16T05:33:13.134Z,100.00
2023-03-16T05:35:42.451Z,100.00
2023-03-16T05:38:10.072Z,100.00
2023-03-16T05:40:37.409Z,100.00
2023-03-16T05:43:06.593Z,100.00
2023-03-16T05:45:33.734Z,100.00
2023-03-16T05:48:00.279Z,100.00
2023-03-16T05:50:27.195Z,100.00
2023-03-16T05:52:54.296Z,100.00
2023-03-16T05:55:20.998Z,100.00
2023-03-16T05:57:47.680Z,100.00
2023-03-16T06:00:16.315Z,100.00
2023-03-16T06:02:44.472Z,100.00
2023-03-16T06:05:11.285Z,100.00
2023-03-16T06:07:38.104Z,98.53
2023-03-16T06:10:06.483Z,96.31
2023-03-16T06:12:34.598Z,95.13
2023-03-16T06:15:02.335Z,94.72
2023-03-16T06:17:29.240Z,93.77
2023-03-16T06:19:55.878Z,90.98
2023-03-16T06:22:25.060Z,88.79
2023-03-16T06:24:52.432Z,88.21
2023-03-16T06:27:20.438Z,85.01
2023-03-16T06:29:47.794Z,84.81
2023-03-16T06:32:14.746Z,81.95
2023-03-16T06:34:43.587Z,81.57
2023-03-16T06:37:10.254Z,78.25
2023-03-16T06:39:36.867Z,77.98
2023-03-16T06:42:05.020Z,69.23
2023-03-16T06:44:31.765Z,62.26
2023-03-16T06:46:58.764Z,62.63
2023-03-16T06:49:25.332Z,59.98
2023-03-16T06:51:51.964Z,58.47
2023-03-16T06:54:18.597Z,58.33
2023-03-16T06:56:46.370Z,57.88
2023-03-16T06:59:13.295Z,55.66
2023-03-16T07:01:39.908Z,51.78
2023-03-16T07:04:06.626Z,51.84
2023-03-16T07:06:33.350Z,51.14
2023-03-16T07:09:01.439Z,49.54
2023-03-16T07:11:28.109Z,45.59
2023-03-16T07:13:54.699Z,42.64
2023-03-16T07:16:22.111Z,42.52
2023-03-16T07:18:48.782Z,43.60
2023-03-16T07:21:15.578Z,45.01
2023-03-16T07:23:42.149Z,40.31
2023-03-16T07:26:08.807Z,43.67
2023-03-16T07:28:35.653Z,40.95
2023-03-16T07:31:04.053Z,41.38
2023-03-16T07:33:32.901Z,42.01
2023-03-16T07:36:00.473Z,40.61
2023-03-16T07:38:27.076Z,39.71
2023-03-16T07:40:53.659Z,38.99
2023-03-16T07:43:20.282Z,39.99
2023-03-16T07:45:51.607Z,39.15
2023-03-16T07:48:18.957Z,38.17
2023-03-16T07:50:48.186Z,39.33
2023-03-16T07:53:15.705Z,37.29
2023-03-16T07:55:43.596Z,34.62
2023-03-16T07:58:11.361Z,35.46
2023-03-16T08:00:39.083Z,34.73
2023-03-16T08:03:06.072Z,34.49
2023-03-16T08:05:32.714Z,35.82
2023-03-16T08:07:59.880Z,39.00
2023-03-16T08:10:27.073Z,35.09
2023-03-16T08:12:53.869Z,36.08
2023-03-16T08:15:21.780Z,37.13
2023-03-16T08:17:48.380Z,34.50
2023-03-16T08:20:15.761Z,36.10
2023-03-16T08:22:46.375Z,35.51
2023-03-16T08:25:14.198Z,33.44
2023-03-16T08:27:43.442Z,35.89
2023-03-16T08:30:12.315Z,32.71
2023-03-16T08:32:39.843Z,32.90
2023-03-16T08:35:16.735Z,32.76
2023-03-16T08:37:43.797Z,35.38
2023-03-16T08:40:17.035Z,34.78
2023-03-16T08:42:44.940Z,32.86
2023-03-16T08:45:14.427Z,33.10
2023-03-16T08:47:41.516Z,32.33
2023-03-16T08:50:09.748Z,32.61
2023-03-16T08:52:36.694Z,33.13
2023-03-16T08:55:05.820Z,31.62
2023-03-16T08:57:33.603Z,31.51
2023-03-16T09:00:01.387Z,31.28
2023-03-16T09:02:29.051Z,32.04
2023-03-16T09:04:56.329Z,30.90
2023-03-16T09:07:23.136Z,30.62
2023-03-16T09:09:50.908Z,29.70
2023-03-16T09:12:17.528Z,31.09
2023-03-16T09:14:44.129Z,29.53
2023-03-16T09:17:11.822Z,30.75
2023-03-16T09:19:57.706Z,29.02
2023-03-16T09:22:25.712Z,29.50
2023-03-16T09:24:52.365Z,30.97
2023-03-16T09:27:20.735Z,29.69
2023-03-16T09:29:48.817Z,30.20
2023-03-16T09:32:15.561Z,28.21
2023-03-16T09:34:42.257Z,29.07
2023-03-16T09:37:09.722Z,27.42
2023-03-16T09:39:37.115Z,29.59
2023-03-16T09:42:25.232Z,27.97
2023-03-16T09:45:10.315Z,24.11
2023-03-16T09:47:38.663Z,25.67
2023-03-16T09:50:16.516Z,26.22
2023-03-16T09:53:09.441Z,27.96
2023-03-16T09:55:38.883Z,26.06
2023-03-16T09:58:13.710Z,28.30
2023-03-16T10:00:51.410Z,26.81
2023-03-16T10:03:38.338Z,23.72
2023-03-16T10:06:09.618Z,23.64
2023-03-16T10:08:43.646Z,26.97
2023-03-16T10:11:27.940Z,28.65
2023-03-16T10:14:17.789Z,31.85
2023-03-16T10:16:51.391Z,28.33
2023-03-16T10:19:23.572Z,27.13
2023-03-16T10:21:54.396Z,26.86
2023-03-16T10:24:46.993Z,25.40
2023-03-16T10:27:23.358Z,23.51
2023-03-16T10:29:50.024Z,25.45
2023-03-16T10:32:19.623Z,24.89
2023-03-16T10:34:56.618Z,25.51
2023-03-16T10:37:24.260Z,25.69
2023-03-16T10:39:50.866Z,21.83
2023-03-16T10:42:20.266Z,23.27
2023-03-16T10:44:47.474Z,21.86
2023-03-16T10:47:25.199Z,24.24
2023-03-16T10:49:51.885Z,24.97
2023-03-16T10:52:42.680Z,25.32
2023-03-16T10:55:24.198Z,28.64
2023-03-16T10:57:56.285Z,24.18
2023-03-16T11:00:29.032Z,23.48
2023-03-16T11:02:58.203Z,24.86
2023-03-16T11:05:34.181Z,25.69
2023-03-16T11:08:23.780Z,25.36
2023-03-16T11:11:14.279Z,24.98
2023-03-16T11:13:45.194Z,24.43
2023-03-16T11:16:38.266Z,26.29
2023-03-16T11:19:26.146Z,24.86
2023-03-16T11:22:08.369Z,21.83
2023-03-16T11:24:52.853Z,21.79
2023-03-16T11:27:30.269Z,23.34
2023-03-16T11:30:05.433Z,22.23
2023-03-16T11:32:38.357Z,23.79
2023-03-16T11:35:38.540Z,21.12
2023-03-16T11:38:21.721Z,21.62
2023-03-16T11:40:53.997Z,24.79
2023-03-16T11:43:20.875Z,27.94
2023-03-16T11:46:14.039Z,22.29
2023-03-16T11:48:48.106Z,22.46
2023-03-16T11:51:33.555Z,22.39
2023-03-16T11:54:25.103Z,20.48
2023-03-16T11:56:59.933Z,22.44
2023-03-16T11:59:29.261Z,23.19
2023-03-16T12:02:01.826Z,23.14
2023-03-16T12:04:45.216Z,23.29
2023-03-16T12:07:21.860Z,23.62
2023-03-16T12:10:23.689Z,23.57
2023-03-16T12:13:22.991Z,23.11
2023-03-16T12:15:54.699Z,24.88
2023-03-16T12:18:34.691Z,24.54
2023-03-16T12:21:15.122Z,23.14
2023-03-16T12:23:55.380Z,23.01
2023-03-16T12:26:26.595Z,23.78
2023-03-16T12:28:55.300Z,22.75
2023-03-16T12:31:50.241Z,21.97
2023-03-16T12:34:28.176Z,22.25
2023-03-16T12:37:14.258Z,21.47
2023-03-16T12:39:40.836Z,22.45
2023-03-16T12:42:36.540Z,20.48
2023-03-16T12:45:10.773Z,22.26
2023-03-16T12:47:38.045Z,20.32
2023-03-16T12:50:11.422Z,19.96
2023-03-16T12:52:49.336Z,19.88
2023-03-16T12:55:27.888Z,19.21
2023-03-16T12:58:06.443Z,20.08
2023-03-16T13:00:35.968Z,20.91
2023-03-16T13:03:05.608Z,20.68
2023-03-16T13:05:35.337Z,20.03
2023-03-16T13:08:11.245Z,19.79
2023-03-16T13:10:38.876Z,23.25
2023-03-16T13:13:11.469Z,23.78
2023-03-16T13:15:40.306Z,23.06
2023-03-16T13:18:09.977Z,24.55
2023-03-16T13:20:48.613Z,21.28
2023-03-16T13:23:24.642Z,20.80
2023-03-16T13:26:14.511Z,21.22
2023-03-16T13:28:43.218Z,19.54
2023-03-16T13:31:33.064Z,19.74
2023-03-16T13:34:00.666Z,19.03
2023-03-16T13:36:29.859Z,19.64
2023-03-16T13:39:12.079Z,19.41
2023-03-16T13:41:38.676Z,20.43
2023-03-16T13:44:05.326Z,21.32
2023-03-16T13:46:31.951Z,19.31
2023-03-16T13:49:01.642Z,19.33
2023-03-16T13:51:31.090Z,20.58
2023-03-16T13:53:57.880Z,20.62
2023-03-16T13:56:28.900Z,21.90
2023-03-16T13:58:58.615Z,21.53
2023-03-16T14:01:28.587Z,20.32
2023-03-16T14:03:59.587Z,21.71
2023-03-16T14:06:28.910Z,18.72
2023-03-16T14:09:02.842Z,20.39
2023-03-16T14:11:29.910Z,21.53
2023-03-16T14:13:58.931Z,19.54
2023-03-16T14:16:32.046Z,21.44
2023-03-16T14:19:03.273Z,22.99
2023-03-16T14:21:34.169Z,21.17
2023-03-16T14:24:04.694Z,21.90
2023-03-16T14:26:46.094Z,22.23
2023-03-16T14:29:18.714Z,21.75
2023-03-16T14:31:46.054Z,22.87
2023-03-16T14:34:41.864Z,22.48
2023-03-16T14:37:14.816Z,21.78
2023-03-16T14:39:42.188Z,22.44
2023-03-16T14:42:21.479Z,23.11
2023-03-16T14:44:49.685Z,21.51
2023-03-16T14:47:24.212Z,23.93
2023-03-16T14:49:51.390Z,21.99
2023-03-16T14:52:31.556Z,22.55
2023-03-16T14:54:59.226Z,23.13
2023-03-16T14:57:26.946Z,21.94
2023-03-16T14:59:54.574Z,24.06
2023-03-16T15:02:28.898Z,22.69
2023-03-16T15:04:56.784Z,23.00
2023-03-16T15:07:27.218Z,24.36
2023-03-16T15:09:55.194Z,23.43
2023-03-16T15:12:25.036Z,23.48
2023-03-16T15:15:10.801Z,24.44
2023-03-16T15:17:39.751Z,24.97
2023-03-16T15:20:07.227Z,24.83
2023-03-16T15:22:39.130Z,25.61
2023-03-16T15:25:08.821Z,24.39
2023-03-16T15:27:36.669Z,24.62
2023-03-16T15:30:03.542Z,24.15
2023-03-16T15:32:30.338Z,25.56
2023-03-16T15:34:57.704Z,24.07
2023-03-16T15:37:27.679Z,24.90
2023-03-16T15:39:54.492Z,24.89
2023-03-16T15:42:21.276Z,24.83
2023-03-16T15:44:48.609Z,23.65
2023-03-16T15:47:16.597Z,23.33
2023-03-16T15:49:47.734Z,24.01
2023-03-16T15:52:37.496Z,25.62
2023-03-16T15:55:07.880Z,24.79
2023-03-16T15:57:36.702Z,24.76
2023-03-16T16:00:04.458Z,26.05
2023-03-16T16:02:32.268Z,25.98
2023-03-16T16:04:59.349Z,26.14
2023-03-16T16:07:27.249Z,25.53
2023-03-16T16:09:54.066Z,26.06
2023-03-16T16:12:26.863Z,25.95
2023-03-16T16:14:56.206Z,26.46
2023-03-16T16:17:36.476Z,26.61
2023-03-16T16:20:25.580Z,27.85
2023-03-16T16:22:52.221Z,26.40
2023-03-16T16:25:22.195Z,26.58
2023-03-16T16:27:50.278Z,27.82
2023-03-16T16:30:26.615Z,28.34
2023-03-16T16:32:53.993Z,27.84
2023-03-16T16:35:27.495Z,28.37
2023-03-16T16:37:54.382Z,28.43
2023-03-16T16:40:24.012Z,28.70
2023-03-16T16:42:53.526Z,27.90
2023-03-16T16:45:27.881Z,27.81
2023-03-16T16:47:55.756Z,27.14
2023-03-16T16:50:26.578Z,27.94
2023-03-16T16:52:54.922Z,28.17
2023-03-16T16:55:22.553Z,28.68
2023-03-16T16:57:52.715Z,28.73
2023-03-16T17:00:25.764Z,30.43
2023-03-16T17:02:55.820Z,31.70
2023-03-16T17:05:25.698Z,32.13
2023-03-16T17:07:52.955Z,32.88
2023-03-16T17:10:25.159Z,33.52
2023-03-16T17:12:56.908Z,33.77
2023-03-16T17:15:30.367Z,34.22
2023-03-16T17:18:17.414Z,34.15
2023-03-16T17:20:44.911Z,34.31
2023-03-16T17:23:37.124Z,35.66
2023-03-16T17:26:13.883Z,36.68
2023-03-16T17:29:06.211Z,36.97
2023-03-16T17:31:39.041Z,37.47
2023-03-16T17:34:23.803Z,40.32
2023-03-16T17:36:51.323Z,38.23
2023-03-16T17:39:22.179Z,39.08
2023-03-16T17:41:54.638Z,38.95
2023-03-16T17:44:21.612Z,40.44
2023-03-16T17:46:48.902Z,41.00
2023-03-16T17:49:18.322Z,41.98
2023-03-16T17:51:45.191Z,41.97
2023-03-16T17:54:11.999Z,45.51
2023-03-16T17:56:40.365Z,48.15
2023-03-16T17:59:15.624Z,46.58
2023-03-16T18:01:47.093Z,46.62
2023-03-16T18:04:24.443Z,46.96
2023-03-16T18:06:51.530Z,48.76
2023-03-16T18:09:20.517Z,50.70
2023-03-16T18:11:50.064Z,45.92
2023-03-16T18:14:36.774Z,50.70
2023-03-16T18:17:15.768Z,49.23
2023-03-16T18:19:43.561Z,44.29
2023-03-16T18:22:23.034Z,44.43
2023-03-16T18:24:51.184Z,44.50
2023-03-16T18:27:18.022Z,42.11
2023-03-16T18:29:46.905Z,41.36
2023-03-16T18:32:23.017Z,41.08
2023-03-16T18:34:51.701Z,43.04
2023-03-16T18:37:28.013Z,42.60
2023-03-16T18:39:55.265Z,42.96
2023-03-16T18:42:29.144Z,43.43
2023-03-16T18:44:55.768Z,46.25
2023-03-16T18:47:24.317Z,47.28
2023-03-16T18:49:54.351Z,46.61
2023-03-16T18:52:22.112Z,47.68
2023-03-16T18:54:49.272Z,48.99
2023-03-16T18:57:21.509Z,48.79
2023-03-16T18:59:48.809Z,49.83
2023-03-16T19:02:31.315Z,49.53
2023-03-16T19:05:00.519Z,50.30
2023-03-16T19:07:36.798Z,50.96
2023-03-16T19:10:14.530Z,53.92
2023-03-16T19:12:43.938Z,54.05
2023-03-16T19:15:19.084Z,55.22
2023-03-16T19:17:46.826Z,56.97
2023-03-16T19:20:18.812Z,59.03
2023-03-16T19:22:48.097Z,59.34
2023-03-16T19:25:29.730Z,60.86
2023-03-16T19:27:57.164Z,61.21
2023-03-16T19:30:29.071Z,62.90
2023-03-16T19:32:58.673Z,63.24
2023-03-16T19:35:50.322Z,63.67
2023-03-16T19:38:18.129Z,63.46
2023-03-16T19:40:48.413Z,65.42
2023-03-16T19:43:18.398Z,63.89
2023-03-16T19:45:48.748Z,66.41
2023-03-16T19:48:21.323Z,66.92
2023-03-16T19:50:49.955Z,68.99
2023-03-16T19:53:19.196Z,69.42
2023-03-16T19:55:51.127Z,69.74
2023-03-16T19:58:26.914Z,69.05
2023-03-16T20:00:53.894Z,68.97
2023-03-16T20:03:20.966Z,69.87
2023-03-16T20:05:50.370Z,69.08
2023-03-16T20:08:24.127Z,68.97
2023-03-16T20:10:51.902Z,69.16
2023-03-16T20:13:18.990Z,68.88
2023-03-16T20:15:46.622Z,67.83
2023-03-16T20:18:19.007Z,66.25
2023-03-16T20:20:46.794Z,66.48
2023-03-16T20:23:25.725Z,64.52
2023-03-16T20:25:54.771Z,65.72
2023-03-16T20:28:25.757Z,65.25
2023-03-16T20:30:52.866Z,67.80
2023-03-16T20:33:25.469Z,66.46
2023-03-16T20:35:56.194Z,66.63
2023-03-16T20:38:23.712Z,67.77
2023-03-16T20:40:53.199Z,68.63
2023-03-16T20:43:32.064Z,69.42
2023-03-16T20:46:02.316Z,70.90
2023-03-16T20:48:29.383Z,73.82
2023-03-16T20:50:57.321Z,75.79
2023-03-16T20:53:27.690Z,77.22
2023-03-16T20:55:56.388Z,79.96
2023-03-16T20:58:26.283Z,79.44
2023-03-16T21:00:57.645Z,80.82
2023-03-16T21:03:29.944Z,81.93
2023-03-16T21:05:59.793Z,83.58
2023-03-16T21:08:26.973Z,85.30
2023-03-16T21:10:55.110Z,85.59
2023-03-16T21:13:28.472Z,86.00
2023-03-16T21:15:58.065Z,89.22
2023-03-16T21:18:24.638Z,91.40
2023-03-16T21:20:52.990Z,92.46
2023-03-16T21:23:22.373Z,93.55
2023-03-16T21:25:55.916Z,94.06
2023-03-16T21:28:26.122Z,95.36
2023-03-16T21:30:54.958Z,94.53
2023-03-16T21:33:33.795Z,96.53
2023-03-16T21:36:02.408Z,96.27
2023-03-16T21:38:31.097Z,96.02
2023-03-16T21:40:58.515Z,96.39
2023-03-16T21:43:26.292Z,98.95
2023-03-16T21:45:55.133Z,99.28
2023-03-16T21:48:24.837Z,98.46
2023-03-16T21:50:53.859Z,100.00
2023-03-16T21:53:25.770Z,100.00
2023-03-16T21:55:54.598Z,100.00
2023-03-16T21:58:22.203Z,100.00
2023-03-16T22:00:50.624Z,100.00
2023-03-16T22:03:29.570Z,100.00
2023-03-16T22:06:00.306Z,100.00
2023-03-16T22:08:33.068Z,100.00
2023-03-16T22:11:00.779Z,100.00
2023-03-16T22:13:28.141Z,100.00
2023-03-16T22:16:01.222Z,100.00
2023-03-16T22:18:30.867Z,100.00
2023-03-16T22:20:58.969Z,100.00
2023-03-16T22:23:34.839Z,100.00
2023-03-16T22:26:03.249Z,100.00
2023-03-16T22:28:31.645Z,100.00
2023-03-16T22:31:00.828Z,100.00
2023-03-16T22:33:30.897Z,100.00
2023-03-16T22:36:12.049Z,100.00
2023-03-16T22:38:40.818Z,100.00
2023-03-16T22:41:08.200Z,100.00
2023-03-16T22:43:37.078Z,100.00
2023-03-16T22:46:04.204Z,100.00
2023-03-16T22:48:32.181Z,100.00
2023-03-16T22:51:03.851Z,100.00
2023-03-16T22:53:39.946Z,100.00
2023-03-16T22:56:10.237Z,100.00
2023-03-16T22:58:41.261Z,100.00
2023-03-16T23:01:19.646Z,100.00
2023-03-16T23:03:48.456Z,100.00
2023-03-16T23:06:21.580Z,100.00
2023-03-16T23:08:49.180Z,100.00
2023-03-16T23:11:22.356Z,100.00
2023-03-16T23:13:49.796Z,100.00
2023-03-16T23:16:36.681Z,100.00
2023-03-16T23:19:24.389Z,100.00
2023-03-16T23:21:53.100Z,100.00
2023-03-16T23:24:19.696Z,100.00
2023-03-16T23:26:46.793Z,100.00
2023-03-16T23:29:13.818Z,100.00
2023-03-16T23:31:40.970Z,100.00
2023-03-16T23:34:20.808Z,100.00
2023-03-16T23:36:47.554Z,100.00
2023-03-16T23:39:14.399Z,100.00
2023-03-16T23:41:44.135Z,100.00
2023-03-16T23:44:23.409Z,100.00
2023-03-16T23:46:51.515Z,100.00
2023-03-16T23:49:27.086Z,100.00
2023-03-16T23:51:56.759Z,100.00
2023-03-16T23:54:29.736Z,100.00
2023-03-16T23:56:57.136Z,100.00
2023-03-16T23:59:23.830Z,100.00
